sensor_id;sensor_type;location;lat;lon;timestamp;pressure;altitude;pressure_sealevel;temperature;humidity
72423;BME280;60413;55.658;37.498;2022-07-22T00:02:25;98508.97;;;15.48;100.00
72423;BME280;60413;55.658;37.498;2022-07-22T00:04:51;98493.47;;;15.36;100.00
72423;BME280;60413;55.658;37.498;2022-07-22T00:07:17;98478.69;;;15.30;100.00
72423;BME280;60413;55.658;37.498;2022-07-22T00:09:43;98508.84;;;15.40;100.00
72423;BME280;60413;55.658;37.498;2022-07-22T00:12:09;98496.41;;;15.35;100.00
72423;BME280;60413;55.658;37.498;2022-07-22T00:14:35;98534.34;;;15.60;100.00
72423;BME280;60413;55.658;37.498;2022-07-22T00:17:01;98481.41;;;15.25;100.00
72423;BME280;60413;55.658;37.498;2022-07-22T00:19:27;98517.41;;;15.55;100.00
72423;BME280;60413;55.658;37.498;2022-07-22T00:21:53;98507.78;;;15.41;100.00
72423;BME280;60413;55.658;37.498;2022-07-22T00:24:19;98512.22;;;15.45;100.00
72423;BME280;60413;55.658;37.498;2022-07-22T00:26:47;98492.25;;;15.29;100.00
72423;BME280;60413;55.658;37.498;2022-07-22T00:29:13;98483.53;;;15.23;100.00
72423;BME280;60413;55.658;37.498;2022-07-22T00:31:40;98522.38;;;15.62;100.00
72423;BME280;60413;55.658;37.498;2022-07-22T00:34:06;98481.50;;;15.39;100.00
72423;BME280;60413;55.658;37.498;2022-07-22T00:36:32;98531.22;;;15.77;100.00
72423;BME280;60413;55.658;37.498;2022-07-22T00:38:58;98506.56;;;15.52;100.00
72423;BME280;60413;55.658;37.498;2022-07-22T00:41:24;98515.25;;;15.57;100.00
72423;BME280;60413;55.658;37.498;2022-07-22T00:43:57;98521.81;;;15.65;100.00
72423;BME280;60413;55.658;37.498;2022-07-22T00:46:24;98514.06;;;15.69;100.00
72423;BME280;60413;55.658;37.498;2022-07-22T00:48:52;98511.75;;;15.62;100.00
72423;BME280;60413;55.658;37.498;2022-07-22T00:51:19;98478.63;;;15.35;100.00
72423;BME280;60413;55.658;37.498;2022-07-22T00:53:48;98546.41;;;15.71;100.00
72423;BME280;60413;55.658;37.498;2022-07-22T00:56:16;98487.91;;;15.57;100.00
72423;BME280;60413;55.658;37.498;2022-07-22T00:58:43;98461.25;;;15.43;100.00
72423;BME280;60413;55.658;37.498;2022-07-22T01:01:09;98527.72;;;15.81;100.00
72423;BME280;60413;55.658;37.498;2022-07-22T01:03:35;98512.16;;;15.69;100.00
72423;BME280;60413;55.658;37.498;2022-07-22T01:06:01;98502.91;;;15.67;100.00
72423;BME280;60413;55.658;37.498;2022-07-22T01:08:27;98539.44;;;15.75;100.00
72423;BME280;60413;55.658;37.498;2022-07-22T01:10:55;98484.59;;;15.46;100.00
72423;BME280;60413;55.658;37.498;2022-07-22T01:13:31;98519.25;;;15.55;100.00
72423;BME280;60413;55.658;37.498;2022-07-22T01:15:56;98544.50;;;15.77;100.00
72423;BME280;60413;55.658;37.498;2022-07-22T01:18:22;98492.34;;;15.62;100.00
72423;BME280;60413;55.658;37.498;2022-07-22T01:20:48;98548.63;;;15.88;100.00
72423;BME280;60413;55.658;37.498;2022-07-22T01:23:14;98502.69;;;15.63;100.00
72423;BME280;60413;55.658;37.498;2022-07-22T01:25:40;98548.53;;;15.93;100.00
72423;BME280;60413;55.658;37.498;2022-07-22T01:28:05;98555.88;;;16.01;100.00
72423;BME280;60413;55.658;37.498;2022-07-22T01:30:31;98520.81;;;15.80;100.00
72423;BME280;60413;55.658;37.498;2022-07-22T01:32:57;98535.69;;;16.00;100.00
72423;BME280;60413;55.658;37.498;2022-07-22T01:35:23;98539.97;;;16.15;100.00
72423;BME280;60413;55.658;37.498;2022-07-22T01:37:49;98553.63;;;16.27;100.00
72423;BME280;60413;55.658;37.498;2022-07-22T01:40:15;98554.22;;;16.24;100.00
72423;BME280;60413;55.658;37.498;2022-07-22T01:42:40;98513.72;;;15.95;100.00
72423;BME280;60413;55.658;37.498;2022-07-22T01:45:07;98535.25;;;15.93;100.00
72423;BME280;60413;55.658;37.498;2022-07-22T01:47:33;98552.44;;;16.01;100.00
72423;BME280;60413;55.658;37.498;2022-07-22T01:49:59;98564.56;;;16.07;100.00
72423;BME280;60413;55.658;37.498;2022-07-22T01:52:25;98563.56;;;16.03;100.00
72423;BME280;60413;55.658;37.498;2022-07-22T01:54:50;98519.38;;;15.69;100.00
72423;BME280;60413;55.658;37.498;2022-07-22T01:57:17;98544.16;;;15.83;100.00
72423;BME280;60413;55.658;37.498;2022-07-22T01:59:47;98565.78;;;15.96;100.00
72423;BME280;60413;55.658;37.498;2022-07-22T02:02:12;98556.94;;;15.81;100.00
72423;BME280;60413;55.658;37.498;2022-07-22T02:04:38;98557.94;;;15.85;100.00
72423;BME280;60413;55.658;37.498;2022-07-22T02:07:04;98525.75;;;15.68;100.00
72423;BME280;60413;55.658;37.498;2022-07-22T02:09:30;98537.56;;;15.81;100.00
72423;BME280;60413;55.658;37.498;2022-07-22T02:11:57;98521.00;;;15.65;100.00
72423;BME280;60413;55.658;37.498;2022-07-22T02:14:23;98535.31;;;15.88;100.00
72423;BME280;60413;55.658;37.498;2022-07-22T02:16:50;98566.22;;;16.03;100.00
72423;BME280;60413;55.658;37.498;2022-07-22T02:19:16;98540.66;;;15.88;100.00
72423;BME280;60413;55.658;37.498;2022-07-22T02:21:42;98540.28;;;15.95;100.00
72423;BME280;60413;55.658;37.498;2022-07-22T02:24:07;98581.34;;;16.40;100.00
72423;BME280;60413;55.658;37.498;2022-07-22T02:26:33;98548.94;;;16.38;100.00
72423;BME280;60413;55.658;37.498;2022-07-22T02:29:00;98539.81;;;16.25;100.00
72423;BME280;60413;55.658;37.498;2022-07-22T02:31:25;98561.84;;;16.64;100.00
72423;BME280;60413;55.658;37.498;2022-07-22T02:33:52;98581.38;;;17.62;100.00
72423;BME280;60413;55.658;37.498;2022-07-22T02:36:18;98536.56;;;18.14;100.00
72423;BME280;60413;55.658;37.498;2022-07-22T02:38:44;98575.78;;;19.13;100.00
72423;BME280;60413;55.658;37.498;2022-07-22T02:41:10;98566.53;;;19.68;100.00
72423;BME280;60413;55.658;37.498;2022-07-22T02:43:41;98595.19;;;19.76;100.00
72423;BME280;60413;55.658;37.498;2022-07-22T02:46:07;98579.50;;;19.34;100.00
72423;BME280;60413;55.658;37.498;2022-07-22T02:48:33;98564.47;;;18.53;100.00
72423;BME280;60413;55.658;37.498;2022-07-22T02:51:00;98596.44;;;18.08;100.00
72423;BME280;60413;55.658;37.498;2022-07-22T02:53:27;98583.16;;;17.52;100.00
72423;BME280;60413;55.658;37.498;2022-07-22T02:55:53;98596.69;;;17.28;100.00
72423;BME280;60413;55.658;37.498;2022-07-22T02:58:22;98595.88;;;17.55;100.00
72423;BME280;60413;55.658;37.498;2022-07-22T03:00:50;98606.13;;;18.40;100.00
72423;BME280;60413;55.658;37.498;2022-07-22T03:03:16;98577.66;;;19.03;100.00
72423;BME280;60413;55.658;37.498;2022-07-22T03:05:42;98590.38;;;19.95;100.00
72423;BME280;60413;55.658;37.498;2022-07-22T03:08:19;98626.88;;;19.51;100.00
72423;BME280;60413;55.658;37.498;2022-07-22T03:10:45;98616.97;;;18.44;100.00
72423;BME280;60413;55.658;37.498;2022-07-22T03:13:11;98623.81;;;17.58;100.00
72423;BME280;60413;55.658;37.498;2022-07-22T03:15:37;98598.13;;;17.07;100.00
72423;BME280;60413;55.658;37.498;2022-07-22T03:18:03;98614.09;;;16.93;100.00
72423;BME280;60413;55.658;37.498;2022-07-22T03:20:29;98601.66;;;16.88;100.00
72423;BME280;60413;55.658;37.498;2022-07-22T03:22:55;98569.38;;;16.76;100.00
72423;BME280;60413;55.658;37.498;2022-07-22T03:25:21;98619.56;;;17.85;100.00
72423;BME280;60413;55.658;37.498;2022-07-22T03:27:47;98607.66;;;18.78;100.00
72423;BME280;60413;55.658;37.498;2022-07-22T03:30:13;98612.22;;;19.40;100.00
72423;BME280;60413;55.658;37.498;2022-07-22T03:32:39;98604.22;;;19.97;100.00
72423;BME280;60413;55.658;37.498;2022-07-22T03:35:14;98599.53;;;19.54;100.00
72423;BME280;60413;55.658;37.498;2022-07-22T03:37:43;98624.88;;;19.25;100.00
72423;BME280;60413;55.658;37.498;2022-07-22T03:40:10;98646.72;;;20.25;100.00
72423;BME280;60413;55.658;37.498;2022-07-22T03:42:38;98629.88;;;20.60;100.00
72423;BME280;60413;55.658;37.498;2022-07-22T03:45:04;98604.22;;;20.85;100.00
72423;BME280;60413;55.658;37.498;2022-07-22T03:47:35;98599.56;;;21.03;100.00
72423;BME280;60413;55.658;37.498;2022-07-22T03:50:02;98600.38;;;21.51;100.00
72423;BME280;60413;55.658;37.498;2022-07-22T03:52:29;98631.94;;;22.47;100.00
72423;BME280;60413;55.658;37.498;2022-07-22T03:54:56;98619.94;;;22.23;100.00
72423;BME280;60413;55.658;37.498;2022-07-22T03:57:22;98604.63;;;22.02;100.00
72423;BME280;60413;55.658;37.498;2022-07-22T03:59:57;98642.00;;;22.08;100.00
72423;BME280;60413;55.658;37.498;2022-07-22T04:02:23;98672.63;;;22.36;100.00
72423;BME280;60413;55.658;37.498;2022-07-22T04:04:49;98635.69;;;22.33;100.00
72423;BME280;60413;55.658;37.498;2022-07-22T04:07:17;98671.00;;;22.44;100.00
72423;BME280;60413;55.658;37.498;2022-07-22T04:09:43;98674.19;;;23.13;100.00
72423;BME280;60413;55.658;37.498;2022-07-22T04:12:09;98654.50;;;22.88;100.00
72423;BME280;60413;55.658;37.498;2022-07-22T04:14:47;98654.06;;;23.31;100.00
72423;BME280;60413;55.658;37.498;2022-07-22T04:17:13;98667.22;;;23.12;100.00
72423;BME280;60413;55.658;37.498;2022-07-22T04:19:39;98636.25;;;23.76;100.00
72423;BME280;60413;55.658;37.498;2022-07-22T04:22:16;98672.66;;;22.70;100.00
72423;BME280;60413;55.658;37.498;2022-07-22T04:24:42;98634.84;;;22.75;100.00
72423;BME280;60413;55.658;37.498;2022-07-22T04:27:08;98637.88;;;23.07;100.00
72423;BME280;60413;55.658;37.498;2022-07-22T04:29:37;98635.66;;;23.34;100.00
72423;BME280;60413;55.658;37.498;2022-07-22T04:32:03;98674.41;;;23.91;100.00
72423;BME280;60413;55.658;37.498;2022-07-22T04:34:29;98634.69;;;24.69;100.00
72423;BME280;60413;55.658;37.498;2022-07-22T04:36:58;98670.97;;;24.71;100.00
72423;BME280;60413;55.658;37.498;2022-07-22T04:39:26;98647.47;;;23.66;100.00
72423;BME280;60413;55.658;37.498;2022-07-22T04:59:58;98688.44;;;24.37;100.00
72423;BME280;60413;55.658;37.498;2022-07-22T05:06:34;98683.34;;;24.07;100.00
72423;BME280;60413;55.658;37.498;2022-07-22T05:56:30;98699.72;;;24.67;100.00
72423;BME280;60413;55.658;37.498;2022-07-22T06:02:18;98667.56;;;25.19;100.00
72423;BME280;60413;55.658;37.498;2022-07-22T06:07:53;98684.88;;;25.02;100.00
72423;BME280;60413;55.658;37.498;2022-07-22T06:23:33;98664.06;;;24.46;100.00
72423;BME280;60413;55.658;37.498;2022-07-22T06:32:27;98656.31;;;24.03;100.00
72423;BME280;60413;55.658;37.498;2022-07-22T07:25:09;98687.91;;;24.31;100.00
72423;BME280;60413;55.658;37.498;2022-07-22T07:27:41;98701.03;;;24.33;100.00
72423;BME280;60413;55.658;37.498;2022-07-22T07:30:11;98721.19;;;24.51;100.00
72423;BME280;60413;55.658;37.498;2022-07-22T07:32:39;98712.16;;;25.28;100.00
72423;BME280;60413;55.658;37.498;2022-07-22T07:35:09;98724.47;;;25.13;100.00
72423;BME280;60413;55.658;37.498;2022-07-22T07:37:55;98712.63;;;23.96;100.00
72423;BME280;60413;55.658;37.498;2022-07-22T07:40:24;98668.53;;;24.13;100.00
72423;BME280;60413;55.658;37.498;2022-07-22T07:42:57;98693.66;;;24.70;100.00
72423;BME280;60413;55.658;37.498;2022-07-22T07:45:23;98687.19;;;24.47;100.00
72423;BME280;60413;55.658;37.498;2022-07-22T07:47:53;98674.72;;;24.42;100.00
72423;BME280;60413;55.658;37.498;2022-07-22T07:50:23;98727.75;;;25.07;100.00
72423;BME280;60413;55.658;37.498;2022-07-22T07:53:08;98730.28;;;24.59;100.00
72423;BME280;60413;55.658;37.498;2022-07-22T07:55:50;98699.69;;;23.65;100.00
72423;BME280;60413;55.658;37.498;2022-07-22T07:58:53;98698.19;;;22.97;100.00
72423;BME280;60413;55.658;37.498;2022-07-22T08:02:19;98696.63;;;23.42;100.00
72423;BME280;60413;55.658;37.498;2022-07-22T08:04:52;98696.94;;;23.28;100.00
72423;BME280;60413;55.658;37.498;2022-07-22T08:07:42;98687.09;;;23.32;100.00
72423;BME280;60413;55.658;37.498;2022-07-22T08:10:19;98702.09;;;23.00;100.00
72423;BME280;60413;55.658;37.498;2022-07-22T08:13:13;98736.22;;;23.08;100.00
72423;BME280;60413;55.658;37.498;2022-07-22T08:15:51;98682.44;;;23.78;100.00
72423;BME280;60413;55.658;37.498;2022-07-22T08:18:23;98696.69;;;24.97;100.00
72423;BME280;60413;55.658;37.498;2022-07-22T08:20:57;98673.13;;;25.10;100.00
72423;BME280;60413;55.658;37.498;2022-07-22T08:28:59;98731.28;;;24.54;100.00
72423;BME280;60413;55.658;37.498;2022-07-22T08:31:56;98742.13;;;24.17;100.00
72423;BME280;60413;55.658;37.498;2022-07-22T08:34:48;98730.56;;;24.04;100.00
72423;BME280;60413;55.658;37.498;2022-07-22T08:37:23;98739.88;;;23.95;100.00
72423;BME280;60413;55.658;37.498;2022-07-22T08:39:55;98702.34;;;24.39;100.00
72423;BME280;60413;55.658;37.498;2022-07-22T08:42:52;98724.44;;;24.57;100.00
72423;BME280;60413;55.658;37.498;2022-07-22T08:45:42;98696.13;;;23.73;100.00
72423;BME280;60413;55.658;37.498;2022-07-22T08:52:21;98692.25;;;25.05;100.00
72423;BME280;60413;55.658;37.498;2022-07-22T08:54:57;98713.78;;;24.48;100.00
72423;BME280;60413;55.658;37.498;2022-07-22T08:57:26;98711.94;;;24.12;100.00
72423;BME280;60413;55.658;37.498;2022-07-22T09:00:00;98701.56;;;24.51;100.00
72423;BME280;60413;55.658;37.498;2022-07-22T09:02:43;98696.28;;;25.11;100.00
72423;BME280;60413;55.658;37.498;2022-07-22T09:05:44;98730.97;;;25.88;100.00
72423;BME280;60413;55.658;37.498;2022-07-22T09:12:20;98733.25;;;25.70;100.00
72423;BME280;60413;55.658;37.498;2022-07-22T09:15:56;98714.38;;;25.55;100.00
72423;BME280;60413;55.658;37.498;2022-07-22T09:19:12;98740.84;;;26.32;100.00
72423;BME280;60413;55.658;37.498;2022-07-22T09:21:48;98729.31;;;24.80;100.00
72423;BME280;60413;55.658;37.498;2022-07-22T09:24:27;98752.44;;;24.15;100.00
72423;BME280;60413;55.658;37.498;2022-07-22T09:27:36;98776.09;;;24.22;100.00
72423;BME280;60413;55.658;37.498;2022-07-22T09:30:58;98752.19;;;24.57;100.00
72423;BME280;60413;55.658;37.498;2022-07-22T09:34:47;98742.22;;;24.86;100.00
72423;BME280;60413;55.658;37.498;2022-07-22T09:41:13;98711.81;;;23.71;100.00
72423;BME280;60413;55.658;37.498;2022-07-22T09:43:47;98724.34;;;23.67;100.00
72423;BME280;60413;55.658;37.498;2022-07-22T09:46:16;98764.53;;;24.46;100.00
72423;BME280;60413;55.658;37.498;2022-07-22T09:49:37;98709.44;;;24.31;100.00
72423;BME280;60413;55.658;37.498;2022-07-22T09:52:39;98737.25;;;25.17;100.00
72423;BME280;60413;55.658;37.498;2022-07-22T09:55:21;98764.94;;;25.58;100.00
72423;BME280;60413;55.658;37.498;2022-07-22T09:57:57;98757.41;;;25.07;100.00
72423;BME280;60413;55.658;37.498;2022-07-22T10:00:38;98723.16;;;24.26;100.00
72423;BME280;60413;55.658;37.498;2022-07-22T10:03:28;98723.28;;;24.05;100.00
72423;BME280;60413;55.658;37.498;2022-07-22T10:06:07;98739.03;;;24.44;100.00
72423;BME280;60413;55.658;37.498;2022-07-22T10:08:43;98723.97;;;24.95;100.00
72423;BME280;60413;55.658;37.498;2022-07-22T10:11:10;98730.19;;;25.12;100.00
72423;BME280;60413;55.658;37.498;2022-07-22T10:14:00;98719.78;;;24.29;100.00
72423;BME280;60413;55.658;37.498;2022-07-22T10:16:45;98718.13;;;23.88;100.00
72423;BME280;60413;55.658;37.498;2022-07-22T10:19:26;98720.59;;;23.22;100.00
72423;BME280;60413;55.658;37.498;2022-07-22T10:21:56;98722.81;;;23.20;100.00
72423;BME280;60413;55.658;37.498;2022-07-22T10:24:28;98790.41;;;23.31;100.00
72423;BME280;60413;55.658;37.498;2022-07-22T10:27:01;98718.44;;;22.94;100.00
72423;BME280;60413;55.658;37.498;2022-07-22T10:29:41;98752.38;;;23.20;100.00
72423;BME280;60413;55.658;37.498;2022-07-22T10:32:35;98726.94;;;23.18;100.00
72423;BME280;60413;55.658;37.498;2022-07-22T10:43:06;98764.13;;;23.49;100.00
72423;BME280;60413;55.658;37.498;2022-07-22T10:45:42;98794.69;;;23.44;100.00
72423;BME280;60413;55.658;37.498;2022-07-22T10:48:13;98756.56;;;23.30;100.00
72423;BME280;60413;55.658;37.498;2022-07-22T10:51:07;98757.88;;;23.57;100.00
72423;BME280;60413;55.658;37.498;2022-07-22T10:56:35;98752.78;;;23.10;100.00
72423;BME280;60413;55.658;37.498;2022-07-22T10:59:12;98772.06;;;23.12;100.00
72423;BME280;60413;55.658;37.498;2022-07-22T11:01:52;98740.88;;;22.78;100.00
72423;BME280;60413;55.658;37.498;2022-07-22T11:04:26;98749.25;;;22.76;100.00
72423;BME280;60413;55.658;37.498;2022-07-22T11:07:50;98730.06;;;23.07;100.00
72423;BME280;60413;55.658;37.498;2022-07-22T11:10:22;98786.53;;;23.53;100.00
72423;BME280;60413;55.658;37.498;2022-07-22T11:12:57;98789.28;;;23.78;100.00
72423;BME280;60413;55.658;37.498;2022-07-22T11:15:41;98769.03;;;24.05;100.00
72423;BME280;60413;55.658;37.498;2022-07-22T11:18:06;98743.78;;;24.34;100.00
72423;BME280;60413;55.658;37.498;2022-07-22T11:20:34;98768.28;;;24.82;100.00
72423;BME280;60413;55.658;37.498;2022-07-22T11:23:01;98746.78;;;24.98;100.00
72423;BME280;60413;55.658;37.498;2022-07-22T11:25:27;98764.31;;;25.48;100.00
72423;BME280;60413;55.658;37.498;2022-07-22T11:27:53;98717.97;;;24.86;100.00
72423;BME280;60413;55.658;37.498;2022-07-22T11:30:21;98742.06;;;24.42;100.00
72423;BME280;60413;55.658;37.498;2022-07-22T11:32:47;98768.34;;;24.33;100.00
72423;BME280;60413;55.658;37.498;2022-07-22T11:35:16;98739.63;;;24.25;100.00
72423;BME280;60413;55.658;37.498;2022-07-22T11:37:42;98783.81;;;24.48;100.00
72423;BME280;60413;55.658;37.498;2022-07-22T11:40:09;98761.59;;;24.39;100.00
72423;BME280;60413;55.658;37.498;2022-07-22T11:42:37;98747.81;;;24.28;100.00
72423;BME280;60413;55.658;37.498;2022-07-22T11:45:05;98750.56;;;24.69;100.00
72423;BME280;60413;55.658;37.498;2022-07-22T11:47:32;98749.41;;;25.10;100.00
72423;BME280;60413;55.658;37.498;2022-07-22T11:50:00;98750.66;;;25.13;100.00
72423;BME280;60413;55.658;37.498;2022-07-22T11:52:28;98735.41;;;25.05;100.00
72423;BME280;60413;55.658;37.498;2022-07-22T11:54:59;98764.75;;;24.94;100.00
72423;BME280;60413;55.658;37.498;2022-07-22T11:57:30;98742.06;;;24.54;100.00
72423;BME280;60413;55.658;37.498;2022-07-22T12:00:06;98762.94;;;24.45;100.00
72423;BME280;60413;55.658;37.498;2022-07-22T12:02:38;98762.28;;;24.48;100.00
72423;BME280;60413;55.658;37.498;2022-07-22T12:05:04;98713.09;;;24.51;100.00
72423;BME280;60413;55.658;37.498;2022-07-22T12:07:33;98754.59;;;24.75;100.00
72423;BME280;60413;55.658;37.498;2022-07-22T12:10:02;98767.94;;;24.84;100.00
72423;BME280;60413;55.658;37.498;2022-07-22T12:12:42;98762.63;;;24.87;100.00
72423;BME280;60413;55.658;37.498;2022-07-22T12:15:08;98773.88;;;24.89;100.00
72423;BME280;60413;55.658;37.498;2022-07-22T12:17:35;98742.94;;;24.71;100.00
72423;BME280;60413;55.658;37.498;2022-07-22T12:20:10;98755.53;;;24.67;100.00
72423;BME280;60413;55.658;37.498;2022-07-22T12:22:45;98732.53;;;24.57;100.00
72423;BME280;60413;55.658;37.498;2022-07-22T12:25:11;98773.41;;;24.87;100.00
72423;BME280;60413;55.658;37.498;2022-07-22T12:27:40;98750.16;;;24.95;100.00
72423;BME280;60413;55.658;37.498;2022-07-22T12:30:13;98737.78;;;24.66;100.00
72423;BME280;60413;55.658;37.498;2022-07-22T12:32:47;98714.06;;;24.31;100.00
72423;BME280;60413;55.658;37.498;2022-07-22T12:35:14;98709.97;;;24.49;100.00
72423;BME280;60413;55.658;37.498;2022-07-22T12:40:10;98742.75;;;24.51;100.00
72423;BME280;60413;55.658;37.498;2022-07-22T12:45:26;98734.81;;;24.83;100.00
72423;BME280;60413;55.658;37.498;2022-07-22T12:47:54;98740.13;;;25.08;100.00
72423;BME280;60413;55.658;37.498;2022-07-22T12:50:27;98768.69;;;25.85;100.00
72423;BME280;60413;55.658;37.498;2022-07-22T12:52:58;98733.84;;;25.64;100.00
72423;BME280;60413;55.658;37.498;2022-07-22T12:55:26;98718.34;;;25.77;100.00
72423;BME280;60413;55.658;37.498;2022-07-22T12:57:52;98755.53;;;25.83;100.00
72423;BME280;60413;55.658;37.498;2022-07-22T13:00:21;98741.25;;;25.67;100.00
72423;BME280;60413;55.658;37.498;2022-07-22T13:02:52;98735.16;;;25.54;100.00
72423;BME280;60413;55.658;37.498;2022-07-22T13:05:18;98702.06;;;25.57;100.00
72423;BME280;60413;55.658;37.498;2022-07-22T13:07:45;98735.66;;;25.00;100.00
72423;BME280;60413;55.658;37.498;2022-07-22T13:10:14;98743.19;;;24.53;100.00
72423;BME280;60413;55.658;37.498;2022-07-22T13:12:41;98700.50;;;24.15;100.00
72423;BME280;60413;55.658;37.498;2022-07-22T13:15:08;98716.78;;;24.06;100.00
72423;BME280;60413;55.658;37.498;2022-07-22T13:17:35;98722.41;;;24.66;100.00
72423;BME280;60413;55.658;37.498;2022-07-22T13:20:02;98714.34;;;24.94;100.00
72423;BME280;60413;55.658;37.498;2022-07-22T13:22:30;98716.28;;;25.10;100.00
72423;BME280;60413;55.658;37.498;2022-07-22T13:24:59;98739.66;;;25.06;100.00
72423;BME280;60413;55.658;37.498;2022-07-22T13:27:25;98746.38;;;25.12;100.00
72423;BME280;60413;55.658;37.498;2022-07-22T13:29:51;98772.63;;;25.27;100.00
72423;BME280;60413;55.658;37.498;2022-07-22T13:32:17;98727.72;;;24.91;100.00
72423;BME280;60413;55.658;37.498;2022-07-22T13:34:43;98741.13;;;24.75;100.00
72423;BME280;60413;55.658;37.498;2022-07-22T13:37:11;98712.56;;;24.58;100.00
72423;BME280;60413;55.658;37.498;2022-07-22T13:39:37;98752.38;;;24.65;100.00
72423;BME280;60413;55.658;37.498;2022-07-22T13:42:04;98709.34;;;24.28;100.00
72423;BME280;60413;55.658;37.498;2022-07-22T13:44:29;98743.09;;;24.37;100.00
72423;BME280;60413;55.658;37.498;2022-07-22T13:46:58;98756.19;;;24.64;100.00
72423;BME280;60413;55.658;37.498;2022-07-22T13:49:24;98748.09;;;24.76;100.00
72423;BME280;60413;55.658;37.498;2022-07-22T13:52:38;98756.88;;;25.01;100.00
72423;BME280;60413;55.658;37.498;2022-07-22T13:55:11;98684.28;;;24.80;100.00
72423;BME280;60413;55.658;37.498;2022-07-22T13:57:42;98716.44;;;24.73;100.00
72423;BME280;60413;55.658;37.498;2022-07-22T14:00:09;98755.22;;;24.96;100.00
72423;BME280;60413;55.658;37.498;2022-07-22T14:02:35;98726.28;;;24.81;100.00
72423;BME280;60413;55.658;37.498;2022-07-22T14:05:02;98744.75;;;24.95;100.00
72423;BME280;60413;55.658;37.498;2022-07-22T14:07:31;98721.81;;;24.73;100.00
72423;BME280;60413;55.658;37.498;2022-07-22T14:10:03;98731.28;;;24.67;100.00
72423;BME280;60413;55.658;37.498;2022-07-22T14:12:29;98715.81;;;24.39;100.00
72423;BME280;60413;55.658;37.498;2022-07-22T14:14:55;98721.31;;;24.55;100.00
72423;BME280;60413;55.658;37.498;2022-07-22T14:17:21;98717.50;;;24.44;100.00
72423;BME280;60413;55.658;37.498;2022-07-22T14:19:47;98700.94;;;24.29;100.00
72423;BME280;60413;55.658;37.498;2022-07-22T14:22:13;98699.91;;;24.21;100.00
72423;BME280;60413;55.658;37.498;2022-07-22T14:24:39;98721.03;;;24.19;100.00
72423;BME280;60413;55.658;37.498;2022-07-22T14:27:05;98732.47;;;23.92;100.00
72423;BME280;60413;55.658;37.498;2022-07-22T14:29:30;98725.88;;;23.89;100.00
72423;BME280;60413;55.658;37.498;2022-07-22T14:31:56;98746.38;;;24.18;100.00
72423;BME280;60413;55.658;37.498;2022-07-22T14:34:22;98752.84;;;24.42;100.00
72423;BME280;60413;55.658;37.498;2022-07-22T14:36:48;98715.81;;;24.39;100.00
72423;BME280;60413;55.658;37.498;2022-07-22T14:39:15;98740.38;;;24.62;100.00
72423;BME280;60413;55.658;37.498;2022-07-22T14:41:41;98733.78;;;24.59;100.00
72423;BME280;60413;55.658;37.498;2022-07-22T14:44:07;98729.81;;;24.69;100.00
72423;BME280;60413;55.658;37.498;2022-07-22T14:46:32;98744.91;;;24.86;100.00
72423;BME280;60413;55.658;37.498;2022-07-22T14:48:58;98776.53;;;25.02;100.00
72423;BME280;60413;55.658;37.498;2022-07-22T14:51:24;98747.31;;;25.04;100.00
72423;BME280;60413;55.658;37.498;2022-07-22T14:53:50;98753.13;;;25.06;100.00
72423;BME280;60413;55.658;37.498;2022-07-22T14:56:16;98770.88;;;25.07;100.00
72423;BME280;60413;55.658;37.498;2022-07-22T14:58:45;98741.06;;;24.87;100.00
72423;BME280;60413;55.658;37.498;2022-07-22T15:01:11;98764.97;;;25.01;100.00
72423;BME280;60413;55.658;37.498;2022-07-22T15:03:38;98741.81;;;24.72;100.00
72423;BME280;60413;55.658;37.498;2022-07-22T15:06:06;98730.44;;;24.78;100.00
72423;BME280;60413;55.658;37.498;2022-07-22T15:08:42;98718.69;;;24.71;100.00
72423;BME280;60413;55.658;37.498;2022-07-22T15:11:08;98739.81;;;24.97;100.00
72423;BME280;60413;55.658;37.498;2022-07-22T15:13:35;98743.34;;;24.85;100.00
72423;BME280;60413;55.658;37.498;2022-07-22T15:16:00;98752.84;;;24.54;100.00
72423;BME280;60413;55.658;37.498;2022-07-22T15:18:26;98738.28;;;24.31;100.00
72423;BME280;60413;55.658;37.498;2022-07-22T15:20:52;98734.63;;;24.11;100.00
72423;BME280;60413;55.658;37.498;2022-07-22T15:23:53;98728.06;;;23.75;100.00
72423;BME280;60413;55.658;37.498;2022-07-22T15:26:21;98756.78;;;23.71;100.00
72423;BME280;60413;55.658;37.498;2022-07-22T15:28:47;98784.00;;;23.81;100.00
72423;BME280;60413;55.658;37.498;2022-07-22T15:31:13;98779.50;;;23.73;100.00
72423;BME280;60413;55.658;37.498;2022-07-22T15:33:50;98764.69;;;23.55;100.00
72423;BME280;60413;55.658;37.498;2022-07-22T15:36:25;98750.75;;;23.40;100.00
72423;BME280;60413;55.658;37.498;2022-07-22T15:42:08;98755.00;;;23.87;100.00
72423;BME280;60413;55.658;37.498;2022-07-22T15:45:03;98778.91;;;24.13;100.00
72423;BME280;60413;55.658;37.498;2022-07-22T15:47:56;98774.53;;;24.21;100.00
72423;BME280;60413;55.658;37.498;2022-07-22T15:50:24;98762.09;;;24.16;100.00
72423;BME280;60413;55.658;37.498;2022-07-22T15:52:52;98776.75;;;24.19;100.00
72423;BME280;60413;55.658;37.498;2022-07-22T15:59:41;98760.72;;;24.10;100.00
72423;BME280;60413;55.658;37.498;2022-07-22T16:02:11;98771.94;;;24.12;100.00
72423;BME280;60413;55.658;37.498;2022-07-22T16:04:47;98779.03;;;24.04;100.00
72423;BME280;60413;55.658;37.498;2022-07-22T16:07:14;98764.78;;;24.04;100.00
72423;BME280;60413;55.658;37.498;2022-07-22T16:09:40;98742.69;;;23.86;100.00
72423;BME280;60413;55.658;37.498;2022-07-22T16:12:09;98766.34;;;23.93;100.00